Key West Nas /Boca Chica Field/ Airport
KNQX : now visible

Airfield :











YOU CAN JOIN US ON...

 
LOGIN :

Register | Disclaimer

   EN    FR    IT 

 









Legend :    VFR   Marginal VFR   IFR   Intensive IFR   Very Intensive IFR
Visi :
Ceiling :
>= 8 km
>= 3000ft
5 to 8 km
1000 to 3000 ft
1500m to 5 km
500 to 1000 ft
800 to 1500m
200 to 500 ft
< 800m
< 200 ft
Symbols :   Thunderstorms  Fog  Heavy snow  Heavy precipitations  Wind > 20 kt







- Airport Elevation : 6 ft


KNQX - Key West Nas /Boca Chica Field/

CURRENT METAR :
  • 230153Z 34010KT 10SM CLR 20/11 A3012 RMK AO2 SLP200 T02000111

EXPIRED METARs :
  • 230053Z AUTO 36010KT 10SM CLR 20/11 A3011 RMK AO2 SLP193 T02000106
  • 222353Z 34009KT 10SM CLR 21/10 A3009 RMK AO2 SLP188 T02060100 10233 20206 53003

TAF TAF KNQX
Valid from the 22 at 23:00 until the 23 at 23:00 UTC


2223/2323 35012KT 9999 FEW250 QNH3007INS
BECMG 2311/2313 05010KT 9999 FEW025 SCT250 QNH3003INS AUTOMATED SENSOR METWATCH 2302 TIL 2310 T20/2311Z T23/2318Z FN20064
KZMA FIR / North America



MET'MAP, your aeronautical weather chart ! - Copyright ORBIFLY December 2007 - Disclaimer

ORBIFLY MET'MAP TEAM :

Programming & Development : Alexandra Zaïnal
Concept & Development : Baudouin d'Aumeries
Co-Development & Prog : Marc-Olivier Méhu
Technical & hardware support : Manuel Goepfert

Contact : metmap@orbifly.com




SOURCES & CREDITS :

   NOAA       Earth
Advisory